Olib — 9AA6266 — position and weather

sailwx.info

Track history (hours):
 
Tides and Currents Weather Stations Pressure Air Temp Water Temp Dewpoint Dewpoint Depression Visibility Wind Speed Wind Dir Waves Ship Positions

Olib

Last reported at 2016-May-24 19:15 UTC. Time now 2016-May-24 21:27 UTC.
Position N 50°53' E 001°15'.

Length 247 m; draft 14.7 m.

Type: Ship. MMSI: 238252000.

Date/timePositionNaut miles runAvg speedWind from/ knotsBaromVisibWave heightAir tempDewpointWater temp
2016-May-24 19:15N 50°53' E 001°15'1013.7
2016-May-24 18:33N 51°00' E 001°25'1312.8
2016-May-24 17:33N 51°09' E 001°39'1111.0
2016-May-24 16:33N 51°18' E 001°49'1010.4
2016-May-24 15:33N 51°27' E 001°57'47811.3
2016-May-22 21:27N 57°51' E 010°09'1011.6
2016-May-22 20:33N 57°52' E 010°28'1110.5
2016-May-22 19:33N 57°48' E 010°46'1010.4
2016-May-22 18:33N 57°41' E 011°01'1211.8
2016-May-22 17:33N 57°33' E 011°16'1111.1
2016-May-22 16:34N 57°24' E 011°28'1211.9
2016-May-22 15:33N 57°13' E 011°36'1211.9
2016-May-22 14:32N 57°01' E 011°44'1111.6
2016-May-22 13:33N 56°51' E 011°50'1010.4
2016-May-22 12:33N 56°40' E 011°49'9010.0
2016-May-22 03:33N 55°13' E 011°06'1010.0
2016-May-22 02:33N 55°04' E 010°60'1010.5
2016-May-22 01:34N 54°55' E 010°52'1111.3
2016-May-22 00:34N 54°44' E 010°47'1110.5
2016-May-21 23:33N 54°36' E 010°60'1211.5
2016-May-21 22:33N 54°33' E 011°19'1212.0
2016-May-21 21:33N 54°28' E 011°38'1211.7
2016-May-21 20:33N 54°27' E 011°58'9 9.3
2016-May-21 19:32N 54°30' E 012°13'10 7.8
2016-May-21 18:15N 54°39' E 012°22'7 9.6
2016-May-21 17:33N 54°42' E 012°32'41 7.7
2016-May-21 12:15N 54°59' E 013°37'811.8
2016-May-21 11:33N 55°01' E 013°50'1111.3
2016-May-21 10:33N 55°07' E 014°08'1211.6
2016-May-21 09:33N 55°16' E 014°19'1111.4
2016-May-21 08:33N 55°25' E 014°33'1211.6
2016-May-21 07:33N 55°31' E 014°50'1212.2
2016-May-21 06:33N 55°36' E 015°09'1211.9
2016-May-21 05:32N 55°40' E 015°30'9711.6
2016-May-20 21:10N 56°11' E 018°14'711.9
2016-May-20 20:33N 56°15' E 018°25'24711.2
2016-May-19 22:29N 59°35' E 022°60'1111.2
2016-May-19 21:30N 59°38' E 023°21'1111.3
2016-May-19 20:32N 59°41' E 023°41'6811.1
2016-May-19 14:25N 59°56' E 025°53'1111.0
2016-May-19 13:25N 59°59' E 026°14'911.0
2016-May-19 12:33N 60°01' E 026°32'1111.0
2016-May-19 11:33N 59°60' E 026°54'1110.3
2016-May-19 10:32N 60°03' E 027°15'1111.0
2016-May-19 09:33N 60°08' E 027°33'1010.1
2016-May-19 08:34N 60°11' E 027°52'1110.9
2016-May-19 07:33N 60°09' E 028°14'10 9.9
2016-May-19 06:32N 60°09' E 028°34'8 8.5
2016-May-19 05:33N 60°14' E 028°47'5 0.2
2016-May-17 21:32N 60°19' E 028°43'7 7.5
2016-May-17 20:33N 60°12' E 028°44'1110.8
2016-May-17 19:33N 60°03' E 028°33'3 3.0
2016-May-17 18:27N 60°01' E 028°27'0 0.0
2016-May-17 17:27N 60°01' E 028°27'0 0.1
2016-May-17 16:30N 60°01' E 028°27'0 0.1
2016-May-17 15:30N 60°01' E 028°27'0 0.0
2016-May-17 14:33N 60°01' E 028°27'0 0.0
2016-May-17 13:33N 60°01' E 028°27'0 0.0
2016-May-17 12:33N 60°01' E 028°27'0 0.1
2016-May-17 11:33N 60°01' E 028°27'0 0.1
2016-May-17 10:33N 60°01' E 028°27'0 0.1
2016-May-17 09:33N 60°01' E 028°27'0 0.0
2016-May-17 08:33N 60°01' E 028°27'0 0.0
2016-May-17 07:33N 60°01' E 028°27'0 0.0
2016-May-17 06:24N 60°01' E 028°27'0 0.0
2016-May-17 05:27N 60°01' E 028°27'0 0.0
2016-May-17 04:27N 60°01' E 028°27'0 0.0
2016-May-17 03:27N 60°01' E 028°27'0 0.0
2016-May-17 02:30N 60°01' E 028°27'0 0.0
2016-May-17 01:30N 60°01' E 028°27'0 0.0
2016-May-17 00:30N 60°01' E 028°27'0 0.0
2016-May-16 23:33N 60°01' E 028°27'0 0.0
2016-May-16 22:33N 60°01' E 028°27'0 0.0
2016-May-16 21:33N 60°01' E 028°27'0 0.0
2016-May-16 20:33N 60°01' E 028°27'0 0.1
2016-May-16 19:21N 60°01' E 028°27'0 0.0
2016-May-16 18:33N 60°01' E 028°27'0 0.0
2016-May-16 17:24N 60°01' E 028°27'0 0.0
2016-May-16 16:24N 60°01' E 028°27'0 0.0
2016-May-16 15:24N 60°01' E 028°27'0 0.0
2016-May-16 14:27N 60°01' E 028°27'0 0.1
2016-May-16 13:27N 60°01' E 028°27'0 0.1
2016-May-16 12:27N 60°01' E 028°27'0 0.1
2016-May-16 11:30N 60°01' E 028°27'0 0.1
2016-May-16 10:27N 60°01' E 028°27'0 0.0
2016-May-16 09:30N 60°01' E 028°27'0 0.0
2016-May-16 08:30N 60°01' E 028°27'0 0.1
2016-May-16 07:33N 60°01' E 028°27'0 0.1
2016-May-16 06:33N 60°01' E 028°27'0 0.1
2016-May-16 05:32N 60°01' E 028°27'0 0.0
2016-May-16 04:30N 60°01' E 028°27'0 0.0
2016-May-16 03:33N 60°01' E 028°27'0 0.0
2016-May-16 02:32N 60°01' E 028°27'0 0.0
2016-May-16 01:23N 60°01' E 028°27'0 0.0
2016-May-16 00:32N 60°01' E 028°27'0 0.0
2016-May-15 23:26N 60°01' E 028°27'0 0.0
2016-May-15 22:27N 60°01' E 028°27'0 0.0
2016-May-15 21:27N 60°01' E 028°27'0 0.0
2016-May-15 20:30N 60°01' E 028°27'0 0.0
2016-May-15 19:29N 60°01' E 028°27'0 0.0
2016-May-15 18:29N 60°01' E 028°27'0 0.0
2016-May-15 17:32N 60°01' E 028°27'0 0.0
2016-May-15 16:32N 60°01' E 028°27'0 0.0
2016-May-15 15:29N 60°01' E 028°27'0 0.0
2016-May-15 14:29N 60°01' E 028°27'0 0.0
2016-May-15 13:29N 60°01' E 028°27'0 0.0
2016-May-15 12:32N 60°01' E 028°27'0 0.0
2016-May-15 11:32N 60°01' E 028°27'0 0.0
2016-May-15 10:23N 60°01' E 028°27'0 0.0
2016-May-15 09:23N 60°01' E 028°27'0 0.0
2016-May-15 08:26N 60°01' E 028°27'0 0.0
2016-May-15 07:26N 60°01' E 028°27'0 0.0
2016-May-15 06:29N 60°01' E 028°27'0 0.0
2016-May-15 05:29N 60°01' E 028°27'0 0.0
2016-May-15 04:29N 60°01' E 028°27'0 0.0
2016-May-15 03:29N 60°01' E 028°27'0 0.0
2016-May-15 02:32N 60°01' E 028°27'0 0.0
2016-May-15 01:29N 60°01' E 028°27'0 0.0
2016-May-15 00:32N 60°01' E 028°27'0 0.0
2016-May-14 23:32N 60°01' E 028°27'0 0.0
2016-May-14 22:20N 60°01' E 028°27'0 0.0
2016-May-14 21:32N 60°01' E 028°27'0 0.0
2016-May-14 20:32N 60°01' E 028°27'0 0.0
2016-May-14 19:32N 60°01' E 028°27'  
Track history (hours):
 
Tides and Currents Weather Stations Pressure Air Temp Water Temp Dewpoint Dewpoint Depression Visibility Wind Speed Wind Dir Waves Ship Positions

Olib

Last reported at 2016-May-24 19:15 UTC. Time now 2016-May-24 21:27 UTC.
Position N 50°53' E 001°15'.

Length 247 m; draft 14.7 m.

Type: Ship. MMSI: 238252000.

Date/timePositionNaut miles runAvg speedWind from/ knotsBaromVisibWave heightAir tempDewpointWater temp
2016-May-24 19:15N 50°53' E 001°15'1013.7
2016-May-24 18:33N 51°00' E 001°25'1312.8
2016-May-24 17:33N 51°09' E 001°39'1111.0
2016-May-24 16:33N 51°18' E 001°49'1010.4
2016-May-24 15:33N 51°27' E 001°57'47811.3
2016-May-22 21:27N 57°51' E 010°09'1011.6
2016-May-22 20:33N 57°52' E 010°28'1110.5
2016-May-22 19:33N 57°48' E 010°46'1010.4
2016-May-22 18:33N 57°41' E 011°01'1211.8
2016-May-22 17:33N 57°33' E 011°16'1111.1
2016-May-22 16:34N 57°24' E 011°28'1211.9
2016-May-22 15:33N 57°13' E 011°36'1211.9
2016-May-22 14:32N 57°01' E 011°44'1111.6
2016-May-22 13:33N 56°51' E 011°50'1010.4
2016-May-22 12:33N 56°40' E 011°49'9010.0
2016-May-22 03:33N 55°13' E 011°06'1010.0
2016-May-22 02:33N 55°04' E 010°60'1010.5
2016-May-22 01:34N 54°55' E 010°52'1111.3
2016-May-22 00:34N 54°44' E 010°47'1110.5
2016-May-21 23:33N 54°36' E 010°60'1211.5
2016-May-21 22:33N 54°33' E 011°19'1212.0
2016-May-21 21:33N 54°28' E 011°38'1211.7
2016-May-21 20:33N 54°27' E 011°58'9 9.3
2016-May-21 19:32N 54°30' E 012°13'10 7.8
2016-May-21 18:15N 54°39' E 012°22'7 9.6
2016-May-21 17:33N 54°42' E 012°32'41 7.7
2016-May-21 12:15N 54°59' E 013°37'811.8
2016-May-21 11:33N 55°01' E 013°50'1111.3
2016-May-21 10:33N 55°07' E 014°08'1211.6
2016-May-21 09:33N 55°16' E 014°19'1111.4
2016-May-21 08:33N 55°25' E 014°33'1211.6
2016-May-21 07:33N 55°31' E 014°50'1212.2
2016-May-21 06:33N 55°36' E 015°09'1211.9
2016-May-21 05:32N 55°40' E 015°30'9711.6
2016-May-20 21:10N 56°11' E 018°14'711.9
2016-May-20 20:33N 56°15' E 018°25'24711.2
2016-May-19 22:29N 59°35' E 022°60'1111.2
2016-May-19 21:30N 59°38' E 023°21'1111.3
2016-May-19 20:32N 59°41' E 023°41'6811.1
2016-May-19 14:25N 59°56' E 025°53'1111.0
2016-May-19 13:25N 59°59' E 026°14'911.0
2016-May-19 12:33N 60°01' E 026°32'1111.0
2016-May-19 11:33N 59°60' E 026°54'1110.3
2016-May-19 10:32N 60°03' E 027°15'1111.0
2016-May-19 09:33N 60°08' E 027°33'1010.1
2016-May-19 08:34N 60°11' E 027°52'1110.9
2016-May-19 07:33N 60°09' E 028°14'10 9.9
2016-May-19 06:32N 60°09' E 028°34'8 8.5
2016-May-19 05:33N 60°14' E 028°47'5 0.2
2016-May-17 21:32N 60°19' E 028°43'7 7.5
2016-May-17 20:33N 60°12' E 028°44'1110.8
2016-May-17 19:33N 60°03' E 028°33'3 3.0
2016-May-17 18:27N 60°01' E 028°27'0 0.0
2016-May-17 17:27N 60°01' E 028°27'0 0.1
2016-May-17 16:30N 60°01' E 028°27'0 0.1
2016-May-17 15:30N 60°01' E 028°27'0 0.0
2016-May-17 14:33N 60°01' E 028°27'0 0.0
2016-May-17 13:33N 60°01' E 028°27'0 0.0
2016-May-17 12:33N 60°01' E 028°27'0 0.1
2016-May-17 11:33N 60°01' E 028°27'0 0.1
2016-May-17 10:33N 60°01' E 028°27'0 0.1
2016-May-17 09:33N 60°01' E 028°27'0 0.0
2016-May-17 08:33N 60°01' E 028°27'0 0.0
2016-May-17 07:33N 60°01' E 028°27'0 0.0
2016-May-17 06:24N 60°01' E 028°27'0 0.0
2016-May-17 05:27N 60°01' E 028°27'0 0.0
2016-May-17 04:27N 60°01' E 028°27'0 0.0
2016-May-17 03:27N 60°01' E 028°27'0 0.0
2016-May-17 02:30N 60°01' E 028°27'0 0.0
2016-May-17 01:30N 60°01' E 028°27'0 0.0
2016-May-17 00:30N 60°01' E 028°27'0 0.0
2016-May-16 23:33N 60°01' E 028°27'0 0.0
2016-May-16 22:33N 60°01' E 028°27'0 0.0
2016-May-16 21:33N 60°01' E 028°27'0 0.0
2016-May-16 20:33N 60°01' E 028°27'0 0.1
2016-May-16 19:21N 60°01' E 028°27'0 0.0
2016-May-16 18:33N 60°01' E 028°27'0 0.0
2016-May-16 17:24N 60°01' E 028°27'0 0.0
2016-May-16 16:24N 60°01' E 028°27'0 0.0
2016-May-16 15:24N 60°01' E 028°27'0 0.0
2016-May-16 14:27N 60°01' E 028°27'0 0.1
2016-May-16 13:27N 60°01' E 028°27'0 0.1
2016-May-16 12:27N 60°01' E 028°27'0 0.1
2016-May-16 11:30N 60°01' E 028°27'0 0.1
2016-May-16 10:27N 60°01' E 028°27'0 0.0
2016-May-16 09:30N 60°01' E 028°27'0 0.0
2016-May-16 08:30N 60°01' E 028°27'0 0.1
2016-May-16 07:33N 60°01' E 028°27'0 0.1
2016-May-16 06:33N 60°01' E 028°27'0 0.1
2016-May-16 05:32N 60°01' E 028°27'0 0.0
2016-May-16 04:30N 60°01' E 028°27'0 0.0
2016-May-16 03:33N 60°01' E 028°27'0 0.0
2016-May-16 02:32N 60°01' E 028°27'0 0.0
2016-May-16 01:23N 60°01' E 028°27'0 0.0
2016-May-16 00:32N 60°01' E 028°27'0 0.0
2016-May-15 23:26N 60°01' E 028°27'0 0.0
2016-May-15 22:27N 60°01' E 028°27'0 0.0
2016-May-15 21:27N 60°01' E 028°27'0 0.0
2016-May-15 20:30N 60°01' E 028°27'0 0.0
2016-May-15 19:29N 60°01' E 028°27'0 0.0
2016-May-15 18:29N 60°01' E 028°27'0 0.0
2016-May-15 17:32N 60°01' E 028°27'0 0.0
2016-May-15 16:32N 60°01' E 028°27'0 0.0
2016-May-15 15:29N 60°01' E 028°27'0 0.0
2016-May-15 14:29N 60°01' E 028°27'0 0.0
2016-May-15 13:29N 60°01' E 028°27'0 0.0
2016-May-15 12:32N 60°01' E 028°27'0 0.0
2016-May-15 11:32N 60°01' E 028°27'0 0.0
2016-May-15 10:23N 60°01' E 028°27'0 0.0
2016-May-15 09:23N 60°01' E 028°27'0 0.0
2016-May-15 08:26N 60°01' E 028°27'0 0.0
2016-May-15 07:26N 60°01' E 028°27'0 0.0
2016-May-15 06:29N 60°01' E 028°27'0 0.0
2016-May-15 05:29N 60°01' E 028°27'0 0.0
2016-May-15 04:29N 60°01' E 028°27'0 0.0
2016-May-15 03:29N 60°01' E 028°27'0 0.0
2016-May-15 02:32N 60°01' E 028°27'0 0.0
2016-May-15 01:29N 60°01' E 028°27'0 0.0
2016-May-15 00:32N 60°01' E 028°27'0 0.0
2016-May-14 23:32N 60°01' E 028°27'0 0.0
2016-May-14 22:20N 60°01' E 028°27'0 0.0
2016-May-14 21:32N 60°01' E 028°27'0 0.0
2016-May-14 20:32N 60°01' E 028°27'0 0.0
2016-May-14 19:32N 60°01' E 028°27'  

Dump ship's entire track history